sensor_id;sensor_type;location;lat;lon;timestamp;temperature;humidity
30999;DHT22;20549;50.042;8.968;2022-09-19T00:00:38;10.50;97.40
30999;DHT22;20549;50.042;8.968;2022-09-19T00:03:05;10.60;97.60
30999;DHT22;20549;50.042;8.968;2022-09-19T00:05:31;10.60;97.50
30999;DHT22;20549;50.042;8.968;2022-09-19T00:07:58;10.60;97.70
30999;DHT22;20549;50.042;8.968;2022-09-19T00:10:24;10.70;97.80
30999;DHT22;20549;50.042;8.968;2022-09-19T00:12:51;10.70;97.90
30999;DHT22;20549;50.042;8.968;2022-09-19T00:15:18;10.80;97.90
30999;DHT22;20549;50.042;8.968;2022-09-19T00:17:44;10.80;97.90
30999;DHT22;20549;50.042;8.968;2022-09-19T00:20:11;10.90;97.80
30999;DHT22;20549;50.042;8.968;2022-09-19T00:22:37;10.90;97.90
30999;DHT22;20549;50.042;8.968;2022-09-19T00:25:04;11.00;97.80
30999;DHT22;20549;50.042;8.968;2022-09-19T00:27:30;11.00;97.70
30999;DHT22;20549;50.042;8.968;2022-09-19T00:29:57;11.10;97.60
30999;DHT22;20549;50.042;8.968;2022-09-19T00:32:24;11.10;97.40
30999;DHT22;20549;50.042;8.968;2022-09-19T00:34:50;11.10;97.40
30999;DHT22;20549;50.042;8.968;2022-09-19T00:37:18;11.10;97.40
30999;DHT22;20549;50.042;8.968;2022-09-19T00:39:43;11.20;97.40
30999;DHT22;20549;50.042;8.968;2022-09-19T00:42:18;11.20;97.40
30999;DHT22;20549;50.042;8.968;2022-09-19T00:47:13;11.20;96.90
30999;DHT22;20549;50.042;8.968;2022-09-19T00:49:40;11.20;96.90
30999;DHT22;20549;50.042;8.968;2022-09-19T00:52:10;11.20;97.00
30999;DHT22;20549;50.042;8.968;2022-09-19T00:54:38;11.20;97.10
30999;DHT22;20549;50.042;8.968;2022-09-19T00:57:04;11.30;97.20
30999;DHT22;20549;50.042;8.968;2022-09-19T00:59:31;11.30;97.20
30999;DHT22;20549;50.042;8.968;2022-09-19T01:01:57;11.30;97.30
30999;DHT22;20549;50.042;8.968;2022-09-19T01:04:24;11.30;97.30
30999;DHT22;20549;50.042;8.968;2022-09-19T01:07:03;11.40;97.40
30999;DHT22;20549;50.042;8.968;2022-09-19T01:12:10;11.50;97.30
30999;DHT22;20549;50.042;8.968;2022-09-19T01:17:28;11.50;97.20
30999;DHT22;20549;50.042;8.968;2022-09-19T01:20:13;11.50;97.00
30999;DHT22;20549;50.042;8.968;2022-09-19T01:28:08;11.60;96.80
30999;DHT22;20549;50.042;8.968;2022-09-19T01:30:34;11.60;96.90
30999;DHT22;20549;50.042;8.968;2022-09-19T01:33:04;11.60;96.90
30999;DHT22;20549;50.042;8.968;2022-09-19T01:35:34;11.70;97.00
30999;DHT22;20549;50.042;8.968;2022-09-19T01:38:03;11.70;97.00
30999;DHT22;20549;50.042;8.968;2022-09-19T01:40:28;11.70;97.00
30999;DHT22;20549;50.042;8.968;2022-09-19T01:42:55;11.70;97.10
30999;DHT22;20549;50.042;8.968;2022-09-19T01:45:22;11.80;97.00
30999;DHT22;20549;50.042;8.968;2022-09-19T01:48:12;11.80;97.00
30999;DHT22;20549;50.042;8.968;2022-09-19T01:56:19;11.90;96.70
30999;DHT22;20549;50.042;8.968;2022-09-19T01:58:47;11.90;96.70
30999;DHT22;20549;50.042;8.968;2022-09-19T02:03:53;11.90;96.70
30999;DHT22;20549;50.042;8.968;2022-09-19T02:06:43;12.00;96.70
30999;DHT22;20549;50.042;8.968;2022-09-19T02:09:35;12.00;96.70
30999;DHT22;20549;50.042;8.968;2022-09-19T02:11:59;12.00;96.70
30999;DHT22;20549;50.042;8.968;2022-09-19T02:14:25;12.00;96.50
30999;DHT22;20549;50.042;8.968;2022-09-19T02:17:04;12.00;96.60
30999;DHT22;20549;50.042;8.968;2022-09-19T02:19:37;12.00;96.70
30999;DHT22;20549;50.042;8.968;2022-09-19T02:22:03;12.00;96.60
30999;DHT22;20549;50.042;8.968;2022-09-19T02:24:29;12.00;96.70
30999;DHT22;20549;50.042;8.968;2022-09-19T02:26:56;12.10;96.80
30999;DHT22;20549;50.042;8.968;2022-09-19T02:29:23;12.10;96.80
30999;DHT22;20549;50.042;8.968;2022-09-19T02:31:48;12.10;96.70
30999;DHT22;20549;50.042;8.968;2022-09-19T02:34:14;12.10;96.70
30999;DHT22;20549;50.042;8.968;2022-09-19T02:36:45;12.10;96.80
30999;DHT22;20549;50.042;8.968;2022-09-19T02:41:57;12.10;96.80
30999;DHT22;20549;50.042;8.968;2022-09-19T02:45:27;12.10;96.70
30999;DHT22;20549;50.042;8.968;2022-09-19T02:47:07;12.10;96.60
30999;DHT22;20549;50.042;8.968;2022-09-19T02:49:43;12.10;96.50
30999;DHT22;20549;50.042;8.968;2022-09-19T02:52:35;12.10;96.60
30999;DHT22;20549;50.042;8.968;2022-09-19T02:54:49;12.10;96.70
30999;DHT22;20549;50.042;8.968;2022-09-19T02:57:13;12.00;96.70
30999;DHT22;20549;50.042;8.968;2022-09-19T02:59:40;12.10;96.70
30999;DHT22;20549;50.042;8.968;2022-09-19T03:02:08;12.10;96.80
30999;DHT22;20549;50.042;8.968;2022-09-19T03:04:34;12.10;96.90
30999;DHT22;20549;50.042;8.968;2022-09-19T03:07:06;12.10;96.90
30999;DHT22;20549;50.042;8.968;2022-09-19T03:09:32;12.10;96.90
30999;DHT22;20549;50.042;8.968;2022-09-19T03:12:03;12.10;96.90
30999;DHT22;20549;50.042;8.968;2022-09-19T03:14:27;12.10;96.90
30999;DHT22;20549;50.042;8.968;2022-09-19T03:16:54;12.10;96.90
30999;DHT22;20549;50.042;8.968;2022-09-19T03:19:20;12.10;97.00
30999;DHT22;20549;50.042;8.968;2022-09-19T03:21:47;12.20;97.00
30999;DHT22;20549;50.042;8.968;2022-09-19T03:24:13;12.20;96.90
30999;DHT22;20549;50.042;8.968;2022-09-19T03:26:40;12.20;96.90
30999;DHT22;20549;50.042;8.968;2022-09-19T03:29:07;12.20;96.70
30999;DHT22;20549;50.042;8.968;2022-09-19T03:31:34;12.20;96.60
30999;DHT22;20549;50.042;8.968;2022-09-19T03:34:00;12.10;96.50
30999;DHT22;20549;50.042;8.968;2022-09-19T03:36:26;12.10;96.40
30999;DHT22;20549;50.042;8.968;2022-09-19T03:38:53;12.10;96.40
30999;DHT22;20549;50.042;8.968;2022-09-19T03:41:20;12.10;96.50
30999;DHT22;20549;50.042;8.968;2022-09-19T03:43:46;12.00;96.60
30999;DHT22;20549;50.042;8.968;2022-09-19T03:46:16;12.00;96.80
30999;DHT22;20549;50.042;8.968;2022-09-19T03:48:42;12.00;97.00
30999;DHT22;20549;50.042;8.968;2022-09-19T03:51:09;12.00;97.10
30999;DHT22;20549;50.042;8.968;2022-09-19T03:53:35;12.00;97.30
30999;DHT22;20549;50.042;8.968;2022-09-19T03:56:02;12.00;97.40
30999;DHT22;20549;50.042;8.968;2022-09-19T03:58:28;12.00;97.50
30999;DHT22;20549;50.042;8.968;2022-09-19T04:00:55;12.10;97.60
30999;DHT22;20549;50.042;8.968;2022-09-19T04:03:22;12.10;97.60
30999;DHT22;20549;50.042;8.968;2022-09-19T04:05:48;12.10;97.60
30999;DHT22;20549;50.042;8.968;2022-09-19T04:08:15;12.10;97.60
30999;DHT22;20549;50.042;8.968;2022-09-19T04:10:53;12.10;97.60
30999;DHT22;20549;50.042;8.968;2022-09-19T04:13:20;12.20;97.60
30999;DHT22;20549;50.042;8.968;2022-09-19T04:15:47;12.20;97.50
30999;DHT22;20549;50.042;8.968;2022-09-19T04:18:13;12.20;97.60
30999;DHT22;20549;50.042;8.968;2022-09-19T04:20:40;12.20;97.50
30999;DHT22;20549;50.042;8.968;2022-09-19T04:23:06;12.30;97.50
30999;DHT22;20549;50.042;8.968;2022-09-19T04:25:33;12.30;97.40
30999;DHT22;20549;50.042;8.968;2022-09-19T04:28:00;12.30;97.40
30999;DHT22;20549;50.042;8.968;2022-09-19T04:30:26;12.30;97.40
30999;DHT22;20549;50.042;8.968;2022-09-19T04:32:53;12.30;97.40
30999;DHT22;20549;50.042;8.968;2022-09-19T04:35:19;12.30;97.40
30999;DHT22;20549;50.042;8.968;2022-09-19T04:37:46;12.30;97.40
30999;DHT22;20549;50.042;8.968;2022-09-19T04:40:12;12.30;97.40
30999;DHT22;20549;50.042;8.968;2022-09-19T04:42:39;12.30;97.40
30999;DHT22;20549;50.042;8.968;2022-09-19T04:45:06;12.30;97.40
30999;DHT22;20549;50.042;8.968;2022-09-19T04:47:32;12.30;97.50
30999;DHT22;20549;50.042;8.968;2022-09-19T04:49:59;12.30;97.40
30999;DHT22;20549;50.042;8.968;2022-09-19T04:52:25;12.30;97.40
30999;DHT22;20549;50.042;8.968;2022-09-19T04:54:52;12.40;97.20
30999;DHT22;20549;50.042;8.968;2022-09-19T04:57:19;12.30;97.10
30999;DHT22;20549;50.042;8.968;2022-09-19T04:59:45;12.30;96.90
30999;DHT22;20549;50.042;8.968;2022-09-19T05:02:12;12.30;96.80
30999;DHT22;20549;50.042;8.968;2022-09-19T05:04:38;12.20;96.70
30999;DHT22;20549;50.042;8.968;2022-09-19T05:07:05;12.20;96.90
30999;DHT22;20549;50.042;8.968;2022-09-19T05:09:31;12.20;97.20
30999;DHT22;20549;50.042;8.968;2022-09-19T05:11:58;12.20;97.40
30999;DHT22;20549;50.042;8.968;2022-09-19T05:14:25;12.10;97.50
30999;DHT22;20549;50.042;8.968;2022-09-19T05:16:54;12.10;97.60
30999;DHT22;20549;50.042;8.968;2022-09-19T05:19:20;12.10;97.60
30999;DHT22;20549;50.042;8.968;2022-09-19T05:21:48;12.10;97.60
30999;DHT22;20549;50.042;8.968;2022-09-19T05:24:14;12.10;97.70
30999;DHT22;20549;50.042;8.968;2022-09-19T05:26:40;12.10;97.70
30999;DHT22;20549;50.042;8.968;2022-09-19T05:29:07;12.10;97.80
30999;DHT22;20549;50.042;8.968;2022-09-19T05:31:33;12.10;98.00
30999;DHT22;20549;50.042;8.968;2022-09-19T05:34:00;12.10;98.20
30999;DHT22;20549;50.042;8.968;2022-09-19T05:36:27;12.10;98.50
30999;DHT22;20549;50.042;8.968;2022-09-19T05:38:53;12.20;98.80
30999;DHT22;20549;50.042;8.968;2022-09-19T05:41:20;12.20;99.00
30999;DHT22;20549;50.042;8.968;2022-09-19T05:43:46;12.30;99.20
30999;DHT22;20549;50.042;8.968;2022-09-19T05:46:13;12.30;99.30
30999;DHT22;20549;50.042;8.968;2022-09-19T05:48:39;12.30;99.30
30999;DHT22;20549;50.042;8.968;2022-09-19T05:51:06;12.40;98.80
30999;DHT22;20549;50.042;8.968;2022-09-19T05:53:33;12.50;99.10
30999;DHT22;20549;50.042;8.968;2022-09-19T05:56:18;12.50;99.00
30999;DHT22;20549;50.042;8.968;2022-09-19T05:58:44;12.60;99.00
30999;DHT22;20549;50.042;8.968;2022-09-19T06:01:11;12.70;99.00
30999;DHT22;20549;50.042;8.968;2022-09-19T06:03:37;12.70;99.10
30999;DHT22;20549;50.042;8.968;2022-09-19T06:06:11;12.80;99.20
30999;DHT22;20549;50.042;8.968;2022-09-19T06:08:33;12.90;99.20
30999;DHT22;20549;50.042;8.968;2022-09-19T06:11:00;12.90;99.10
30999;DHT22;20549;50.042;8.968;2022-09-19T06:13:26;13.00;99.20
30999;DHT22;20549;50.042;8.968;2022-09-19T06:15:53;13.10;99.10
30999;DHT22;20549;50.042;8.968;2022-09-19T06:18:20;13.20;99.00
30999;DHT22;20549;50.042;8.968;2022-09-19T06:20:46;13.30;98.90
30999;DHT22;20549;50.042;8.968;2022-09-19T06:23:13;13.30;98.90
30999;DHT22;20549;50.042;8.968;2022-09-19T06:25:39;13.40;98.80
30999;DHT22;20549;50.042;8.968;2022-09-19T06:28:07;13.50;98.80
30999;DHT22;20549;50.042;8.968;2022-09-19T06:30:33;13.60;98.90
30999;DHT22;20549;50.042;8.968;2022-09-19T06:32:59;13.60;98.80
30999;DHT22;20549;50.042;8.968;2022-09-19T06:35:26;13.70;98.60
30999;DHT22;20549;50.042;8.968;2022-09-19T06:37:58;13.80;98.40
30999;DHT22;20549;50.042;8.968;2022-09-19T06:40:24;13.90;98.10
30999;DHT22;20549;50.042;8.968;2022-09-19T06:43:00;13.90;97.80
30999;DHT22;20549;50.042;8.968;2022-09-19T06:45:32;14.00;97.70
30999;DHT22;20549;50.042;8.968;2022-09-19T06:47:58;14.10;97.80
30999;DHT22;20549;50.042;8.968;2022-09-19T06:50:25;14.20;98.20
30999;DHT22;20549;50.042;8.968;2022-09-19T06:52:51;14.30;98.90
30999;DHT22;20549;50.042;8.968;2022-09-19T06:55:18;14.60;99.90
30999;DHT22;20549;50.042;8.968;2022-09-19T06:57:54;15.00;99.90
30999;DHT22;20549;50.042;8.968;2022-09-19T07:00:20;15.60;99.90
30999;DHT22;20549;50.042;8.968;2022-09-19T07:02:47;16.30;99.90
30999;DHT22;20549;50.042;8.968;2022-09-19T07:05:13;17.10;99.90
30999;DHT22;20549;50.042;8.968;2022-09-19T07:07:40;17.90;99.90
30999;DHT22;20549;50.042;8.968;2022-09-19T07:10:06;18.70;99.90
30999;DHT22;20549;50.042;8.968;2022-09-19T07:12:33;19.50;99.70
30999;DHT22;20549;50.042;8.968;2022-09-19T07:15:00;20.20;96.00
30999;DHT22;20549;50.042;8.968;2022-09-19T07:17:26;20.80;91.90
30999;DHT22;20549;50.042;8.968;2022-09-19T07:19:53;21.10;86.90
30999;DHT22;20549;50.042;8.968;2022-09-19T07:22:19;21.30;83.60
30999;DHT22;20549;50.042;8.968;2022-09-19T07:24:46;21.50;84.90
30999;DHT22;20549;50.042;8.968;2022-09-19T07:27:13;21.90;87.80
30999;DHT22;20549;50.042;8.968;2022-09-19T07:29:39;22.40;88.90
30999;DHT22;20549;50.042;8.968;2022-09-19T07:32:06;23.00;86.90
30999;DHT22;20549;50.042;8.968;2022-09-19T07:34:32;23.60;83.20
30999;DHT22;20549;50.042;8.968;2022-09-19T07:37:00;24.20;80.40
30999;DHT22;20549;50.042;8.968;2022-09-19T07:39:27;24.80;78.70
30999;DHT22;20549;50.042;8.968;2022-09-19T07:41:53;25.40;77.50
30999;DHT22;20549;50.042;8.968;2022-09-19T07:44:20;26.10;75.50
30999;DHT22;20549;50.042;8.968;2022-09-19T07:46:46;26.60;73.50
30999;DHT22;20549;50.042;8.968;2022-09-19T07:49:13;27.20;71.40
30999;DHT22;20549;50.042;8.968;2022-09-19T07:51:40;27.70;68.70
30999;DHT22;20549;50.042;8.968;2022-09-19T07:54:06;28.00;66.20
30999;DHT22;20549;50.042;8.968;2022-09-19T07:56:33;28.10;63.60
30999;DHT22;20549;50.042;8.968;2022-09-19T07:58:59;28.00;61.90
30999;DHT22;20549;50.042;8.968;2022-09-19T08:01:26;28.00;60.90
30999;DHT22;20549;50.042;8.968;2022-09-19T08:03:53;27.80;60.90
30999;DHT22;20549;50.042;8.968;2022-09-19T08:06:19;27.70;60.70
30999;DHT22;20549;50.042;8.968;2022-09-19T08:08:46;27.50;59.70
30999;DHT22;20549;50.042;8.968;2022-09-19T08:11:12;27.30;59.00
30999;DHT22;20549;50.042;8.968;2022-09-19T08:13:39;26.90;58.30
30999;DHT22;20549;50.042;8.968;2022-09-19T08:16:05;26.50;58.30
30999;DHT22;20549;50.042;8.968;2022-09-19T08:18:32;26.10;58.30
30999;DHT22;20549;50.042;8.968;2022-09-19T08:20:59;25.70;58.20
30999;DHT22;20549;50.042;8.968;2022-09-19T08:23:25;25.40;58.60
30999;DHT22;20549;50.042;8.968;2022-09-19T08:25:52;25.20;58.90
30999;DHT22;20549;50.042;8.968;2022-09-19T08:28:18;25.10;60.30
30999;DHT22;20549;50.042;8.968;2022-09-19T08:30:48;25.20;61.60
30999;DHT22;20549;50.042;8.968;2022-09-19T08:33:14;25.60;62.90
30999;DHT22;20549;50.042;8.968;2022-09-19T08:35:41;26.10;63.80
30999;DHT22;20549;50.042;8.968;2022-09-19T08:38:08;26.50;63.40
30999;DHT22;20549;50.042;8.968;2022-09-19T08:43:14;27.10;59.70
30999;DHT22;20549;50.042;8.968;2022-09-19T08:46:03;27.30;59.00
30999;DHT22;20549;50.042;8.968;2022-09-19T08:48:28;27.30;58.60
30999;DHT22;20549;50.042;8.968;2022-09-19T08:50:57;27.30;57.90
30999;DHT22;20549;50.042;8.968;2022-09-19T08:53:23;27.20;56.90
30999;DHT22;20549;50.042;8.968;2022-09-19T08:55:47;26.90;56.10
30999;DHT22;20549;50.042;8.968;2022-09-19T08:58:14;26.60;55.60
30999;DHT22;20549;50.042;8.968;2022-09-19T09:00:41;26.20;55.50
30999;DHT22;20549;50.042;8.968;2022-09-19T09:03:07;25.70;55.50
30999;DHT22;20549;50.042;8.968;2022-09-19T09:06:12;25.30;55.70
30999;DHT22;20549;50.042;8.968;2022-09-19T09:14:15;24.00;57.40
30999;DHT22;20549;50.042;8.968;2022-09-19T09:24:40;23.00;58.90
30999;DHT22;20549;50.042;8.968;2022-09-19T09:27:05;22.90;59.20
30999;DHT22;20549;50.042;8.968;2022-09-19T09:29:37;22.70;59.40
30999;DHT22;20549;50.042;8.968;2022-09-19T09:32:06;22.70;59.70
30999;DHT22;20549;50.042;8.968;2022-09-19T09:34:38;22.70;59.80
30999;DHT22;20549;50.042;8.968;2022-09-19T09:37:27;22.70;60.20
30999;DHT22;20549;50.042;8.968;2022-09-19T09:39:57;22.70;60.80
30999;DHT22;20549;50.042;8.968;2022-09-19T09:42:32;22.70;60.80
30999;DHT22;20549;50.042;8.968;2022-09-19T09:45:16;22.80;60.20
30999;DHT22;20549;50.042;8.968;2022-09-19T09:47:45;22.70;59.80
30999;DHT22;20549;50.042;8.968;2022-09-19T09:53:02;22.40;59.60
30999;DHT22;20549;50.042;8.968;2022-09-19T09:55:30;22.20;59.80
30999;DHT22;20549;50.042;8.968;2022-09-19T10:01:49;21.90;60.40
30999;DHT22;20549;50.042;8.968;2022-09-19T10:03:52;21.90;61.20
30999;DHT22;20549;50.042;8.968;2022-09-19T10:06:22;21.90;61.30
30999;DHT22;20549;50.042;8.968;2022-09-19T10:11:18;22.00;61.20
30999;DHT22;20549;50.042;8.968;2022-09-19T10:13:50;22.00;61.20
30999;DHT22;20549;50.042;8.968;2022-09-19T10:16:11;22.00;61.00
30999;DHT22;20549;50.042;8.968;2022-09-19T10:18:41;22.00;60.70
30999;DHT22;20549;50.042;8.968;2022-09-19T10:21:07;22.00;60.50
30999;DHT22;20549;50.042;8.968;2022-09-19T10:23:33;22.00;60.70
30999;DHT22;20549;50.042;8.968;2022-09-19T10:26:00;22.00;60.70
30999;DHT22;20549;50.042;8.968;2022-09-19T10:28:33;22.00;60.90
30999;DHT22;20549;50.042;8.968;2022-09-19T10:31:02;22.10;61.00
30999;DHT22;20549;50.042;8.968;2022-09-19T10:33:44;22.20;61.10
30999;DHT22;20549;50.042;8.968;2022-09-19T10:35:54;22.30;60.90
30999;DHT22;20549;50.042;8.968;2022-09-19T10:38:21;22.30;60.50
30999;DHT22;20549;50.042;8.968;2022-09-19T10:40:57;22.40;60.30
30999;DHT22;20549;50.042;8.968;2022-09-19T10:43:28;22.40;60.00
30999;DHT22;20549;50.042;8.968;2022-09-19T10:45:53;22.40;60.20
30999;DHT22;20549;50.042;8.968;2022-09-19T10:48:26;22.50;60.20
30999;DHT22;20549;50.042;8.968;2022-09-19T10:50:51;22.50;60.00
30999;DHT22;20549;50.042;8.968;2022-09-19T10:53:21;22.50;59.90
30999;DHT22;20549;50.042;8.968;2022-09-19T10:55:47;22.50;60.00
30999;DHT22;20549;50.042;8.968;2022-09-19T10:58:15;22.50;59.80
30999;DHT22;20549;50.042;8.968;2022-09-19T11:00:59;22.50;59.80
30999;DHT22;20549;50.042;8.968;2022-09-19T11:03:29;22.50;59.80
30999;DHT22;20549;50.042;8.968;2022-09-19T11:08:46;22.50;59.90
30999;DHT22;20549;50.042;8.968;2022-09-19T11:17:08;22.60;59.10
30999;DHT22;20549;50.042;8.968;2022-09-19T11:22:34;22.60;59.10
30999;DHT22;20549;50.042;8.968;2022-09-19T11:25:07;22.50;59.00
30999;DHT22;20549;50.042;8.968;2022-09-19T11:27:39;22.40;58.90
30999;DHT22;20549;50.042;8.968;2022-09-19T11:30:24;22.30;58.70
30999;DHT22;20549;50.042;8.968;2022-09-19T11:32:56;22.20;58.70
30999;DHT22;20549;50.042;8.968;2022-09-19T11:35:26;22.10;58.60
30999;DHT22;20549;50.042;8.968;2022-09-19T11:46:44;21.90;59.40
30999;DHT22;20549;50.042;8.968;2022-09-19T11:49:12;21.90;59.40
30999;DHT22;20549;50.042;8.968;2022-09-19T11:59:52;21.90;58.90
30999;DHT22;20549;50.042;8.968;2022-09-19T12:10:36;21.90;58.90
30999;DHT22;20549;50.042;8.968;2022-09-19T12:13:41;21.90;58.70
30999;DHT22;20549;50.042;8.968;2022-09-19T12:15:28;21.80;58.60
30999;DHT22;20549;50.042;8.968;2022-09-19T12:17:56;21.80;58.70
30999;DHT22;20549;50.042;8.968;2022-09-19T12:20:32;21.80;58.60
30999;DHT22;20549;50.042;8.968;2022-09-19T12:23:02;21.80;58.60
30999;DHT22;20549;50.042;8.968;2022-09-19T12:25:26;21.80;58.60
30999;DHT22;20549;50.042;8.968;2022-09-19T12:28:07;21.80;58.60
30999;DHT22;20549;50.042;8.968;2022-09-19T12:30:36;21.80;58.50
30999;DHT22;20549;50.042;8.968;2022-09-19T12:33:14;21.80;58.50
30999;DHT22;20549;50.042;8.968;2022-09-19T12:35:41;21.80;58.30
30999;DHT22;20549;50.042;8.968;2022-09-19T12:41:03;21.80;58.20
30999;DHT22;20549;50.042;8.968;2022-09-19T12:43:43;21.70;58.20
30999;DHT22;20549;50.042;8.968;2022-09-19T12:46:44;21.70;58.10
30999;DHT22;20549;50.042;8.968;2022-09-19T12:49:12;21.70;58.00
30999;DHT22;20549;50.042;8.968;2022-09-19T12:54:11;21.50;58.00
30999;DHT22;20549;50.042;8.968;2022-09-19T12:56:38;21.40;58.20
30999;DHT22;20549;50.042;8.968;2022-09-19T12:59:13;21.40;58.30
30999;DHT22;20549;50.042;8.968;2022-09-19T13:01:42;21.40;58.20
30999;DHT22;20549;50.042;8.968;2022-09-19T13:04:24;21.40;58.30
30999;DHT22;20549;50.042;8.968;2022-09-19T13:06:37;21.40;58.30
30999;DHT22;20549;50.042;8.968;2022-09-19T13:09:09;21.40;58.30
30999;DHT22;20549;50.042;8.968;2022-09-19T13:11:46;21.50;58.40
30999;DHT22;20549;50.042;8.968;2022-09-19T13:14:15;21.60;58.40
30999;DHT22;20549;50.042;8.968;2022-09-19T13:16:41;21.70;58.50
30999;DHT22;20549;50.042;8.968;2022-09-19T13:19:09;21.80;58.30
30999;DHT22;20549;50.042;8.968;2022-09-19T13:21:52;21.90;57.90
30999;DHT22;20549;50.042;8.968;2022-09-19T13:27:11;22.10;57.50
30999;DHT22;20549;50.042;8.968;2022-09-19T13:42:37;22.20;55.80
30999;DHT22;20549;50.042;8.968;2022-09-19T13:45:07;22.20;55.60
30999;DHT22;20549;50.042;8.968;2022-09-19T13:47:29;22.10;55.50
30999;DHT22;20549;50.042;8.968;2022-09-19T13:50:23;22.10;55.10
30999;DHT22;20549;50.042;8.968;2022-09-19T13:52:47;21.90;55.20
30999;DHT22;20549;50.042;8.968;2022-09-19T13:57:40;21.70;55.50
30999;DHT22;20549;50.042;8.968;2022-09-19T14:00:27;21.60;55.60
30999;DHT22;20549;50.042;8.968;2022-09-19T14:03:05;21.60;55.90
30999;DHT22;20549;50.042;8.968;2022-09-19T14:05:27;21.60;56.00
30999;DHT22;20549;50.042;8.968;2022-09-19T14:10:46;21.50;56.20
30999;DHT22;20549;50.042;8.968;2022-09-19T14:21:01;21.40;56.00
30999;DHT22;20549;50.042;8.968;2022-09-19T14:23:48;21.40;56.30
30999;DHT22;20549;50.042;8.968;2022-09-19T14:25:58;21.30;56.60
30999;DHT22;20549;50.042;8.968;2022-09-19T14:32:02;21.40;56.60
30999;DHT22;20549;50.042;8.968;2022-09-19T14:39:36;21.60;56.40
30999;DHT22;20549;50.042;8.968;2022-09-19T14:42:15;21.60;56.20
30999;DHT22;20549;50.042;8.968;2022-09-19T14:47:17;21.60;55.90
30999;DHT22;20549;50.042;8.968;2022-09-19T14:49:47;21.60;56.00
30999;DHT22;20549;50.042;8.968;2022-09-19T14:52:16;21.60;55.90
30999;DHT22;20549;50.042;8.968;2022-09-19T14:54:42;21.60;55.80
30999;DHT22;20549;50.042;8.968;2022-09-19T14:57:15;21.60;55.70
30999;DHT22;20549;50.042;8.968;2022-09-19T14:59:40;21.50;55.50
30999;DHT22;20549;50.042;8.968;2022-09-19T15:02:15;21.50;55.40
30999;DHT22;20549;50.042;8.968;2022-09-19T15:04:39;21.40;55.50
30999;DHT22;20549;50.042;8.968;2022-09-19T15:07:07;21.30;55.70
30999;DHT22;20549;50.042;8.968;2022-09-19T15:09:36;21.20;55.80
30999;DHT22;20549;50.042;8.968;2022-09-19T15:12:10;21.10;55.50
30999;DHT22;20549;50.042;8.968;2022-09-19T15:14:28;21.00;55.50
30999;DHT22;20549;50.042;8.968;2022-09-19T15:17:24;20.80;55.50
30999;DHT22;20549;50.042;8.968;2022-09-19T15:19:49;20.60;56.10
30999;DHT22;20549;50.042;8.968;2022-09-19T15:22:34;20.40;55.60
30999;DHT22;20549;50.042;8.968;2022-09-19T15:25:06;20.20;55.70
30999;DHT22;20549;50.042;8.968;2022-09-19T15:27:31;20.00;56.00
30999;DHT22;20549;50.042;8.968;2022-09-19T15:29:55;19.70;56.20
30999;DHT22;20549;50.042;8.968;2022-09-19T15:34:49;19.30;56.90
30999;DHT22;20549;50.042;8.968;2022-09-19T15:37:16;19.10;57.00
30999;DHT22;20549;50.042;8.968;2022-09-19T15:39:42;19.00;57.30
30999;DHT22;20549;50.042;8.968;2022-09-19T15:42:10;18.80;57.60
30999;DHT22;20549;50.042;8.968;2022-09-19T15:44:35;18.70;57.80
30999;DHT22;20549;50.042;8.968;2022-09-19T15:47:02;18.70;58.00
30999;DHT22;20549;50.042;8.968;2022-09-19T15:49:29;18.60;58.20
30999;DHT22;20549;50.042;8.968;2022-09-19T15:51:58;18.60;58.30
30999;DHT22;20549;50.042;8.968;2022-09-19T15:54:24;18.60;58.20
30999;DHT22;20549;50.042;8.968;2022-09-19T15:56:51;18.70;58.10
30999;DHT22;20549;50.042;8.968;2022-09-19T15:59:21;18.70;58.00
30999;DHT22;20549;50.042;8.968;2022-09-19T16:01:54;18.70;58.00
30999;DHT22;20549;50.042;8.968;2022-09-19T16:04:19;18.70;57.80
30999;DHT22;20549;50.042;8.968;2022-09-19T16:09:40;18.70;57.70
30999;DHT22;20549;50.042;8.968;2022-09-19T16:14:53;18.60;57.70
30999;DHT22;20549;50.042;8.968;2022-09-19T16:17:14;18.60;57.80
30999;DHT22;20549;50.042;8.968;2022-09-19T16:19:42;18.50;58.00
30999;DHT22;20549;50.042;8.968;2022-09-19T16:22:09;18.40;58.00
30999;DHT22;20549;50.042;8.968;2022-09-19T16:24:44;18.40;58.10
30999;DHT22;20549;50.042;8.968;2022-09-19T16:27:09;18.30;58.10
30999;DHT22;20549;50.042;8.968;2022-09-19T16:29:40;18.30;58.20
30999;DHT22;20549;50.042;8.968;2022-09-19T16:32:03;18.20;58.30
30999;DHT22;20549;50.042;8.968;2022-09-19T16:34:36;18.20;58.50
30999;DHT22;20549;50.042;8.968;2022-09-19T16:37:02;18.10;59.00
30999;DHT22;20549;50.042;8.968;2022-09-19T16:39:40;18.10;58.40
30999;DHT22;20549;50.042;8.968;2022-09-19T16:41:56;18.10;58.50
30999;DHT22;20549;50.042;8.968;2022-09-19T16:46:58;18.10;59.00
30999;DHT22;20549;50.042;8.968;2022-09-19T16:49:24;18.10;59.30
30999;DHT22;20549;50.042;8.968;2022-09-19T16:51:50;18.00;59.30
30999;DHT22;20549;50.042;8.968;2022-09-19T16:54:17;17.90;59.40
30999;DHT22;20549;50.042;8.968;2022-09-19T16:56:43;17.90;59.50
30999;DHT22;20549;50.042;8.968;2022-09-19T16:59:10;17.90;59.60
30999;DHT22;20549;50.042;8.968;2022-09-19T17:01:36;17.80;59.70
30999;DHT22;20549;50.042;8.968;2022-09-19T17:04:03;17.70;59.80
30999;DHT22;20549;50.042;8.968;2022-09-19T17:06:30;17.60;60.00
30999;DHT22;20549;50.042;8.968;2022-09-19T17:08:56;17.50;60.30
30999;DHT22;20549;50.042;8.968;2022-09-19T17:11:23;17.50;60.50
30999;DHT22;20549;50.042;8.968;2022-09-19T17:13:49;17.40;60.50
30999;DHT22;20549;50.042;8.968;2022-09-19T17:16:16;17.30;60.70
30999;DHT22;20549;50.042;8.968;2022-09-19T17:18:43;17.30;60.90
30999;DHT22;20549;50.042;8.968;2022-09-19T17:21:10;17.20;61.00
30999;DHT22;20549;50.042;8.968;2022-09-19T17:23:36;17.10;61.90
30999;DHT22;20549;50.042;8.968;2022-09-19T17:26:03;17.10;61.30
30999;DHT22;20549;50.042;8.968;2022-09-19T17:28:29;17.00;61.40
30999;DHT22;20549;50.042;8.968;2022-09-19T17:30:56;17.00;61.40
30999;DHT22;20549;50.042;8.968;2022-09-19T17:33:23;16.90;61.40
30999;DHT22;20549;50.042;8.968;2022-09-19T17:35:49;16.90;61.60
30999;DHT22;20549;50.042;8.968;2022-09-19T17:38:15;16.90;61.30
30999;DHT22;20549;50.042;8.968;2022-09-19T17:40:42;16.80;61.30
30999;DHT22;20549;50.042;8.968;2022-09-19T17:43:09;16.80;61.40
30999;DHT22;20549;50.042;8.968;2022-09-19T17:45:35;16.80;61.50
30999;DHT22;20549;50.042;8.968;2022-09-19T17:48:02;16.80;61.60
30999;DHT22;20549;50.042;8.968;2022-09-19T17:50:28;16.80;61.60
30999;DHT22;20549;50.042;8.968;2022-09-19T17:52:55;16.80;61.40
30999;DHT22;20549;50.042;8.968;2022-09-19T17:55:22;16.80;61.40
30999;DHT22;20549;50.042;8.968;2022-09-19T17:57:48;16.70;61.40
30999;DHT22;20549;50.042;8.968;2022-09-19T18:00:15;16.70;61.40